createdAt,value
2023-02-02T00:01:16.135Z,3.28
2023-02-02T00:03:43.342Z,4.05
2023-02-02T00:06:10.555Z,3.78
2023-02-02T00:08:39.253Z,3.88
2023-02-02T00:11:06.593Z,4.18
2023-02-02T00:13:34.077Z,4.22
2023-02-02T00:16:21.153Z,3.55
2023-02-02T00:18:49.207Z,2.95
2023-02-02T00:21:16.592Z,2.80
2023-02-02T00:23:43.746Z,4.38
2023-02-02T00:26:10.916Z,3.30
2023-02-02T00:28:38.080Z,3.63
2023-02-02T00:31:05.425Z,3.20
2023-02-02T00:33:32.579Z,3.53
2023-02-02T00:35:59.753Z,3.10
2023-02-02T00:38:26.946Z,2.90
2023-02-02T00:40:54.121Z,2.65
2023-02-02T00:43:21.289Z,3.03
2023-02-02T00:45:48.804Z,3.05
2023-02-02T00:48:16.051Z,3.33
2023-02-02T00:50:43.252Z,2.92
2023-02-02T00:53:10.457Z,3.97
2023-02-02T00:55:37.697Z,4.25
2023-02-02T00:58:04.828Z,3.15
2023-02-02T01:00:31.987Z,2.55
2023-02-02T01:03:04.347Z,3.25
2023-02-02T01:05:31.926Z,2.90
2023-02-02T01:07:59.131Z,2.80
2023-02-02T01:10:26.369Z,2.38
2023-02-02T01:12:53.615Z,2.22
2023-02-02T01:15:20.738Z,2.95
2023-02-02T01:17:48.024Z,2.20
2023-02-02T01:20:19.687Z,2.08
2023-02-02T01:22:46.972Z,2.85
2023-02-02T01:25:14.158Z,2.27
2023-02-02T01:27:43.111Z,2.40
2023-02-02T01:30:10.854Z,2.03
2023-02-02T01:32:38.031Z,1.52
2023-02-02T01:35:05.283Z,2.37
2023-02-02T01:37:32.414Z,1.87
2023-02-02T01:39:59.592Z,1.60
2023-02-02T01:42:26.790Z,2.00
2023-02-02T01:45:12.569Z,1.33
2023-02-02T01:48:00.808Z,2.08
2023-02-02T01:50:30.256Z,1.50
2023-02-02T01:52:57.802Z,1.80
2023-02-02T01:55:25.777Z,1.73
2023-02-02T01:57:58.332Z,1.58
2023-02-02T02:00:27.686Z,1.70
2023-02-02T02:02:56.908Z,1.40
2023-02-02T02:05:32.598Z,1.40
2023-02-02T02:08:04.876Z,1.40
2023-02-02T02:10:32.120Z,1.83
2023-02-02T02:12:59.260Z,1.95
2023-02-02T02:15:44.772Z,1.55
2023-02-02T02:18:32.181Z,1.42
2023-02-02T02:21:24.498Z,1.83
2023-02-02T02:24:13.233Z,2.13
2023-02-02T02:26:52.642Z,2.17
2023-02-02T02:29:42.229Z,2.17
2023-02-02T02:32:24.778Z,1.75
2023-02-02T02:34:55.044Z,2.20
2023-02-02T02:37:30.684Z,2.33
2023-02-02T02:39:57.840Z,1.90
2023-02-02T02:42:25.833Z,2.40
2023-02-02T02:44:52.990Z,1.95
2023-02-02T02:47:20.156Z,1.88
2023-02-02T02:49:47.674Z,2.78
2023-02-02T02:52:15.010Z,1.85
2023-02-02T02:54:45.124Z,2.03
2023-02-02T02:57:12.290Z,2.30
2023-02-02T02:59:45.457Z,1.90
2023-02-02T03:02:16.923Z,1.73
2023-02-02T03:04:56.449Z,1.77
2023-02-02T03:07:55.879Z,1.90
2023-02-02T03:10:23.711Z,2.20
2023-02-02T03:12:51.251Z,1.67
2023-02-02T03:15:18.601Z,2.20
2023-02-02T03:17:46.665Z,1.52
2023-02-02T03:20:14.121Z,1.88
2023-02-02T03:22:41.285Z,2.17
2023-02-02T03:25:11.195Z,2.03
2023-02-02T03:27:39.011Z,2.13
2023-02-02T03:30:09.955Z,2.40
2023-02-02T03:32:37.366Z,2.42
2023-02-02T03:35:04.685Z,2.38
2023-02-02T03:37:31.861Z,3.08
2023-02-02T03:39:59.068Z,2.72
2023-02-02T03:42:26.230Z,2.10
2023-02-02T03:44:53.361Z,2.17
2023-02-02T03:47:20.508Z,2.40
2023-02-02T03:49:48.394Z,3.07
2023-02-02T03:52:15.538Z,3.38
2023-02-02T03:54:42.776Z,2.30
2023-02-02T03:57:09.939Z,3.10
2023-02-02T03:59:37.120Z,3.17
2023-02-02T04:02:04.516Z,2.95
2023-02-02T04:04:31.646Z,3.20
2023-02-02T04:06:59.353Z,2.78
2023-02-02T04:09:26.488Z,2.40
2023-02-02T04:11:53.727Z,2.53
2023-02-02T04:14:20.994Z,2.28
2023-02-02T04:16:48.205Z,2.58
2023-02-02T04:19:15.910Z,2.45
2023-02-02T04:21:43.044Z,2.90
2023-02-02T04:24:13.173Z,2.50
2023-02-02T04:26:40.391Z,2.13
2023-02-02T04:29:07.654Z,2.57
2023-02-02T04:31:34.821Z,2.10
2023-02-02T04:34:02.154Z,2.25
2023-02-02T04:36:29.368Z,1.93
2023-02-02T04:38:56.626Z,1.63
2023-02-02T04:41:24.014Z,2.10
2023-02-02T04:43:51.187Z,2.50
2023-02-02T04:46:18.354Z,2.63
2023-02-02T04:48:45.519Z,2.43
2023-02-02T04:51:14.126Z,1.85
2023-02-02T04:53:41.564Z,2.45
2023-02-02T04:56:09.254Z,1.67
2023-02-02T04:58:36.461Z,2.90
2023-02-02T05:01:08.892Z,1.73
2023-02-02T05:03:36.109Z,2.08
2023-02-02T05:06:03.668Z,1.67
2023-02-02T05:08:30.918Z,1.98
2023-02-02T05:10:58.077Z,2.05
2023-02-02T05:13:25.261Z,2.03
2023-02-02T05:15:52.475Z,1.38
2023-02-02T05:18:19.714Z,1.50
2023-02-02T05:20:46.890Z,1.92
2023-02-02T05:23:14.083Z,2.17
2023-02-02T05:25:41.201Z,1.80
2023-02-02T05:28:08.431Z,1.70
2023-02-02T05:30:35.621Z,1.20
2023-02-02T05:33:02.790Z,1.30
2023-02-02T05:35:30.014Z,2.28
2023-02-02T05:37:59.239Z,1.95
2023-02-02T05:40:26.509Z,2.30
2023-02-02T05:42:53.717Z,2.08
2023-02-02T05:45:20.866Z,1.80
2023-02-02T05:47:48.036Z,1.75
2023-02-02T05:50:15.260Z,2.28
2023-02-02T05:52:42.463Z,2.63
2023-02-02T05:55:10.524Z,2.60
2023-02-02T05:57:37.664Z,2.38
2023-02-02T06:00:05.408Z,2.55
2023-02-02T06:02:32.589Z,2.20
2023-02-02T06:04:59.736Z,2.57
2023-02-02T06:07:26.861Z,1.83
2023-02-02T06:09:54.026Z,1.55
2023-02-02T06:12:21.259Z,2.05
2023-02-02T06:14:48.408Z,1.38
2023-02-02T06:17:15.684Z,2.20
2023-02-02T06:19:43.072Z,2.25
2023-02-02T06:22:10.278Z,2.10
2023-02-02T06:24:37.459Z,2.70
2023-02-02T06:27:04.709Z,1.90
2023-02-02T06:29:31.957Z,2.55
2023-02-02T06:31:59.176Z,2.10
2023-02-02T06:34:26.395Z,2.67
2023-02-02T06:36:53.560Z,2.50
2023-02-02T06:39:20.713Z,3.05
2023-02-02T06:41:48.351Z,2.97
2023-02-02T06:44:15.649Z,2.28
2023-02-02T06:46:43.164Z,2.88
2023-02-02T06:49:10.291Z,2.75
2023-02-02T06:51:37.428Z,2.30
2023-02-02T06:54:04.686Z,2.10
2023-02-02T06:56:31.826Z,2.22
2023-02-02T06:58:58.967Z,2.28
2023-02-02T07:01:26.230Z,2.20
2023-02-02T07:03:53.556Z,2.70
2023-02-02T07:06:22.383Z,2.63
2023-02-02T07:09:01.935Z,2.85
2023-02-02T07:11:31.271Z,2.45
2023-02-02T07:13:58.808Z,3.63
2023-02-02T07:16:26.033Z,3.03
2023-02-02T07:18:53.355Z,1.88
2023-02-02T07:21:23.886Z,2.55
2023-02-02T07:23:51.119Z,3.60
2023-02-02T07:26:18.789Z,3.23
2023-02-02T07:28:46.150Z,2.33
2023-02-02T07:31:17.378Z,2.53
2023-02-02T07:33:45.176Z,2.85
2023-02-02T07:36:12.817Z,3.03
2023-02-02T07:38:39.979Z,3.03
2023-02-02T07:41:07.197Z,1.73
2023-02-02T07:43:34.499Z,3.05
2023-02-02T07:46:02.859Z,2.30
2023-02-02T07:48:30.826Z,3.28
2023-02-02T07:51:01.396Z,2.35
2023-02-02T07:53:28.810Z,2.30
2023-02-02T07:56:06.004Z,2.25
2023-02-02T07:58:33.192Z,1.98
2023-02-02T08:01:07.077Z,2.00
2023-02-02T08:03:34.342Z,2.65
2023-02-02T08:06:01.569Z,2.25
2023-02-02T08:08:31.214Z,2.75
2023-02-02T08:10:58.351Z,2.70
2023-02-02T08:13:25.502Z,1.70
2023-02-02T08:15:52.652Z,3.03
2023-02-02T08:18:19.975Z,2.75
2023-02-02T08:20:47.173Z,2.42
2023-02-02T08:23:15.973Z,2.28
2023-02-02T08:25:43.356Z,2.78
2023-02-02T08:28:10.526Z,3.25
2023-02-02T08:30:37.711Z,3.67
2023-02-02T08:33:04.961Z,2.30
2023-02-02T08:35:32.147Z,2.53
2023-02-02T08:38:02.895Z,3.50
2023-02-02T08:40:30.119Z,2.30
2023-02-02T08:42:57.431Z,2.83
2023-02-02T08:46:02.113Z,2.28
2023-02-02T08:48:12.972Z,3.28
2023-02-02T08:50:40.302Z,3.67
2023-02-02T08:53:07.510Z,3.28
2023-02-02T08:55:34.726Z,2.85
2023-02-02T08:58:01.870Z,2.45
2023-02-02T09:00:29.059Z,3.10
2023-02-02T09:02:56.233Z,2.75
2023-02-02T09:05:23.986Z,3.47
2023-02-02T09:07:51.434Z,1.88
2023-02-02T09:10:18.617Z,2.40
2023-02-02T09:12:45.754Z,2.40
2023-02-02T09:15:13.584Z,2.55
2023-02-02T09:17:40.767Z,2.60
2023-02-02T09:20:08.057Z,2.50
2023-02-02T09:22:35.201Z,2.28
2023-02-02T09:25:02.439Z,2.13
2023-02-02T09:27:29.572Z,2.30
2023-02-02T09:29:56.767Z,2.10
2023-02-02T09:32:23.901Z,1.90
2023-02-02T09:34:51.086Z,2.05
2023-02-02T09:37:18.256Z,2.33
2023-02-02T09:39:45.420Z,1.60
2023-02-02T09:42:35.862Z,2.42
2023-02-02T09:45:23.722Z,1.55
2023-02-02T09:47:55.543Z,1.30
2023-02-02T09:50:25.876Z,1.33
2023-02-02T09:53:01.902Z,1.70
2023-02-02T09:55:31.927Z,2.30
2023-02-02T09:58:01.086Z,1.77
2023-02-02T10:00:34.914Z,1.45
2023-02-02T10:03:17.446Z,1.02
2023-02-02T10:05:49.990Z,1.40
2023-02-02T10:08:34.045Z,0.90
2023-02-02T10:11:02.668Z,1.00
2023-02-02T10:13:33.468Z,0.93
2023-02-02T10:16:07.751Z,1.20
2023-02-02T10:18:44.643Z,1.15
2023-02-02T10:21:14.869Z,1.08
2023-02-02T10:23:42.857Z,1.38
2023-02-02T10:26:16.217Z,1.60
2023-02-02T10:28:51.898Z,1.10
2023-02-02T10:31:39.387Z,2.40
2023-02-02T10:34:12.317Z,1.05
2023-02-02T10:36:43.535Z,0.80
2023-02-02T10:39:10.919Z,1.42
2023-02-02T10:41:46.763Z,1.00
2023-02-02T10:44:13.941Z,0.82
2023-02-02T10:46:41.944Z,1.13
2023-02-02T10:49:12.177Z,1.70
2023-02-02T10:51:40.610Z,1.60
2023-02-02T10:54:21.476Z,1.02
2023-02-02T10:56:52.621Z,0.98
2023-02-02T10:59:20.601Z,0.85
2023-02-02T11:01:48.723Z,1.20
2023-02-02T11:04:34.640Z,1.10
2023-02-02T11:07:01.831Z,1.00
2023-02-02T11:09:31.943Z,1.00
2023-02-02T11:12:01.829Z,0.80
2023-02-02T11:14:31.831Z,1.00
2023-02-02T11:17:03.911Z,0.93
2023-02-02T11:19:31.744Z,1.50
2023-02-02T11:22:02.750Z,0.88
2023-02-02T11:24:30.008Z,0.82
2023-02-02T11:26:59.916Z,0.85
2023-02-02T11:29:30.823Z,0.88
2023-02-02T11:31:58.121Z,0.90
2023-02-02T11:34:28.641Z,0.98
2023-02-02T11:36:58.970Z,0.57
2023-02-02T11:39:26.315Z,0.80
2023-02-02T11:42:13.283Z,0.57
2023-02-02T11:44:40.466Z,0.90
2023-02-02T11:47:07.647Z,0.90
2023-02-02T11:49:38.570Z,1.40
2023-02-02T11:52:14.822Z,0.98
2023-02-02T11:54:41.989Z,0.60
2023-02-02T11:57:09.435Z,0.68
2023-02-02T11:59:40.430Z,0.83
2023-02-02T12:02:26.709Z,1.00
2023-02-02T12:04:54.591Z,0.77
2023-02-02T12:07:34.261Z,1.25
2023-02-02T12:10:02.148Z,0.90
2023-02-02T12:12:55.579Z,0.70
2023-02-02T12:15:23.787Z,0.52
2023-02-02T12:17:50.956Z,0.40
2023-02-02T12:20:33.487Z,0.70
2023-02-02T12:23:03.725Z,0.75
2023-02-02T12:25:54.067Z,0.82
2023-02-02T12:28:34.428Z,0.90
2023-02-02T12:31:21.324Z,1.17
2023-02-02T12:34:04.392Z,0.50
2023-02-02T12:36:54.706Z,0.80
2023-02-02T12:39:22.783Z,0.70
2023-02-02T12:41:49.964Z,0.90
2023-02-02T12:44:32.146Z,0.55
2023-02-02T12:47:02.170Z,1.50
2023-02-02T12:49:32.097Z,0.80
2023-02-02T12:52:06.393Z,0.88
2023-02-02T12:54:54.765Z,0.75
2023-02-02T12:57:24.190Z,0.90
2023-02-02T12:59:51.310Z,1.20
2023-02-02T13:02:37.672Z,1.02
2023-02-02T13:05:10.932Z,1.23
2023-02-02T13:07:42.472Z,1.17
2023-02-02T13:10:16.820Z,0.77
2023-02-02T13:12:45.193Z,1.40
2023-02-02T13:15:14.047Z,1.30
2023-02-02T13:17:49.525Z,1.30
2023-02-02T13:20:26.271Z,3.88
2023-02-02T13:22:54.482Z,8.05
2023-02-02T13:25:31.843Z,1.50
2023-02-02T13:27:59.645Z,0.73
2023-02-02T13:30:32.012Z,0.50
2023-02-02T13:32:59.765Z,0.90
2023-02-02T13:35:29.663Z,0.88
2023-02-02T13:38:03.935Z,1.10
2023-02-02T13:40:34.099Z,0.88
2023-02-02T13:43:20.439Z,0.80
2023-02-02T13:46:07.610Z,0.90
2023-02-02T13:48:50.215Z,0.90
2023-02-02T13:51:36.077Z,1.08
2023-02-02T13:54:22.839Z,2.50
2023-02-02T13:56:50.118Z,4.65
2023-02-02T13:59:32.361Z,3.22
2023-02-02T14:01:59.595Z,2.70
2023-02-02T14:04:30.920Z,3.58
2023-02-02T14:07:07.206Z,4.10
2023-02-02T14:09:35.188Z,4.03
2023-02-02T14:12:03.585Z,5.85
2023-02-02T14:14:34.604Z,4.60
2023-02-02T14:17:03.042Z,4.35
2023-02-02T14:19:36.401Z,8.60
2023-02-02T14:22:09.556Z,13.88
2023-02-02T14:24:36.820Z,18.42
2023-02-02T14:27:10.038Z,4.22
2023-02-02T14:29:41.859Z,3.78
2023-02-02T14:32:28.693Z,5.85
2023-02-02T14:34:56.561Z,3.92
2023-02-02T14:37:23.793Z,2.87
2023-02-02T14:40:06.489Z,2.45
2023-02-02T14:43:11.518Z,6.57
2023-02-02T14:45:39.342Z,7.28
2023-02-02T14:48:15.331Z,3.40
2023-02-02T14:51:05.913Z,1.42
2023-02-02T14:53:33.719Z,1.93
2023-02-02T14:56:06.288Z,0.77
2023-02-02T14:58:48.750Z,1.20
2023-02-02T15:01:25.574Z,0.50
2023-02-02T15:04:11.731Z,1.45
2023-02-02T15:06:45.161Z,2.00
2023-02-02T15:09:27.862Z,2.07
2023-02-02T15:12:06.741Z,23.88
2023-02-02T15:14:54.638Z,1.10
2023-02-02T15:17:24.481Z,2.13
2023-02-02T15:20:11.978Z,0.90
2023-02-02T15:22:43.854Z,1.10
2023-02-02T15:25:26.879Z,1.92
2023-02-02T15:27:57.233Z,0.70
2023-02-02T15:30:24.769Z,0.93
2023-02-02T15:32:53.665Z,0.80
2023-02-02T15:35:22.190Z,5.10
2023-02-02T15:37:51.972Z,2.35
2023-02-02T15:40:22.850Z,3.20
2023-02-02T15:43:10.832Z,3.53
2023-02-02T15:45:44.382Z,11.40
2023-02-02T15:48:17.602Z,10.00
2023-02-02T15:50:46.705Z,5.68
2023-02-02T15:53:21.543Z,11.63
2023-02-02T15:55:48.813Z,15.52
2023-02-02T15:58:32.357Z,12.40
2023-02-02T16:01:00.928Z,2.93
2023-02-02T16:03:31.774Z,2.90
2023-02-02T16:05:58.983Z,3.50
2023-02-02T16:08:27.749Z,2.88
2023-02-02T16:11:04.085Z,2.42
2023-02-02T16:13:32.037Z,1.70
2023-02-02T16:16:00.116Z,2.00
2023-02-02T16:18:27.517Z,2.20
2023-02-02T16:20:54.840Z,2.00
2023-02-02T16:23:32.172Z,1.40
2023-02-02T16:25:59.937Z,1.38
2023-02-02T16:28:27.138Z,0.98
2023-02-02T16:30:54.427Z,0.95
2023-02-02T16:33:28.414Z,0.70
2023-02-02T16:35:55.877Z,1.10
2023-02-02T16:38:36.244Z,0.80
2023-02-02T16:41:09.471Z,0.80
2023-02-02T16:43:38.052Z,1.40
2023-02-02T16:46:11.504Z,5.10
2023-02-02T16:48:39.928Z,6.68
2023-02-02T16:51:08.350Z,9.82
2023-02-02T16:53:35.610Z,3.38
2023-02-02T16:56:03.991Z,3.05
2023-02-02T16:58:31.182Z,2.93
2023-02-02T17:01:12.341Z,2.73
2023-02-02T17:03:42.383Z,2.67
2023-02-02T17:06:09.577Z,7.72
2023-02-02T17:08:37.205Z,7.50
2023-02-02T17:11:24.799Z,16.00
2023-02-02T17:13:52.155Z,9.10
2023-02-02T17:16:20.606Z,4.10
2023-02-02T17:18:48.052Z,2.80
2023-02-02T17:21:16.236Z,1.35
2023-02-02T17:23:43.480Z,1.80
2023-02-02T17:26:11.262Z,1.65
2023-02-02T17:28:39.291Z,5.53
2023-02-02T17:31:07.256Z,14.60
2023-02-02T17:33:35.601Z,10.48
2023-02-02T17:36:02.898Z,8.70
2023-02-02T17:38:30.212Z,14.18
2023-02-02T17:41:00.066Z,18.23
2023-02-02T17:43:28.488Z,12.65
2023-02-02T17:45:55.773Z,12.05
2023-02-02T17:48:22.936Z,11.38
2023-02-02T17:50:50.305Z,9.63
2023-02-02T17:53:18.504Z,5.75
2023-02-02T17:55:45.892Z,4.65
2023-02-02T17:58:15.027Z,3.22
2023-02-02T18:00:42.283Z,4.13
2023-02-02T18:03:45.311Z,3.20
2023-02-02T18:06:12.906Z,2.20
2023-02-02T18:08:40.981Z,1.30
2023-02-02T18:11:10.051Z,1.33
2023-02-02T18:13:37.275Z,0.77
2023-02-02T18:16:06.225Z,0.80
2023-02-02T18:18:33.485Z,0.55
2023-02-02T18:21:00.707Z,0.75
2023-02-02T18:23:28.017Z,0.63
2023-02-02T18:25:57.261Z,1.00
2023-02-02T18:28:24.910Z,0.90
2023-02-02T18:30:52.500Z,0.90
2023-02-02T18:33:20.063Z,1.10
2023-02-02T18:35:48.820Z,0.90
2023-02-02T18:38:16.232Z,0.98
2023-02-02T18:40:44.475Z,0.90
2023-02-02T18:43:11.744Z,1.13
2023-02-02T18:45:38.945Z,0.93
2023-02-02T18:48:06.210Z,0.98
2023-02-02T18:50:33.410Z,1.10
2023-02-02T18:53:00.657Z,0.90
2023-02-02T18:55:28.182Z,0.90
2023-02-02T18:57:56.760Z,1.25
2023-02-02T19:00:24.050Z,1.20
2023-02-02T19:02:51.221Z,0.77
2023-02-02T19:05:37.360Z,1.10
2023-02-02T19:08:05.916Z,1.30
2023-02-02T19:10:33.169Z,1.30
2023-02-02T19:13:09.182Z,1.50
2023-02-02T19:15:38.249Z,0.90
2023-02-02T19:18:12.483Z,1.20
2023-02-02T19:20:39.797Z,2.05
2023-02-02T19:23:12.859Z,2.13
2023-02-02T19:25:45.536Z,1.85
2023-02-02T19:28:23.984Z,2.00
2023-02-02T19:30:51.904Z,2.10
2023-02-02T19:33:19.300Z,1.60
2023-02-02T19:35:47.989Z,1.57
2023-02-02T19:38:15.598Z,1.30
2023-02-02T19:40:43.012Z,1.23
2023-02-02T19:43:16.020Z,1.90
2023-02-02T19:45:43.210Z,1.70
2023-02-02T19:48:17.554Z,2.20
2023-02-02T19:50:44.877Z,1.90
2023-02-02T19:53:42.371Z,1.70
2023-02-02T19:56:28.203Z,1.42
2023-02-02T19:58:56.709Z,1.40
2023-02-02T20:01:25.059Z,1.35
2023-02-02T20:03:53.448Z,1.80
2023-02-02T20:06:30.631Z,1.63
2023-02-02T20:08:58.103Z,1.30
2023-02-02T20:11:41.833Z,1.40
2023-02-02T20:14:19.752Z,1.30
2023-02-02T20:16:50.980Z,1.33
2023-02-02T20:19:20.668Z,1.30
2023-02-02T20:21:49.154Z,1.20
2023-02-02T20:24:28.409Z,1.77
2023-02-02T20:26:57.100Z,1.80
2023-02-02T20:29:28.093Z,1.80
2023-02-02T20:31:56.701Z,2.42
2023-02-02T20:34:27.359Z,2.47
2023-02-02T20:36:55.108Z,2.50
2023-02-02T20:39:29.937Z,2.50
2023-02-02T20:41:57.378Z,2.55
2023-02-02T20:44:25.100Z,2.72
2023-02-02T20:46:52.565Z,2.22
2023-02-02T20:49:24.415Z,2.47
2023-02-02T20:51:58.168Z,2.15
2023-02-02T20:54:26.683Z,3.00
2023-02-02T20:56:54.518Z,2.05
2023-02-02T20:59:22.042Z,2.67
2023-02-02T21:01:53.110Z,2.80
2023-02-02T21:04:20.526Z,2.47
2023-02-02T21:06:48.821Z,2.10
2023-02-02T21:09:16.299Z,2.83
2023-02-02T21:11:43.569Z,2.40
2023-02-02T21:14:11.097Z,2.47
2023-02-02T21:16:38.533Z,2.55
2023-02-02T21:19:05.895Z,1.80
2023-02-02T21:21:33.219Z,2.22
2023-02-02T21:24:01.131Z,2.25
2023-02-02T21:26:30.839Z,2.13
2023-02-02T21:28:58.499Z,3.00
2023-02-02T21:31:27.208Z,2.05
2023-02-02T21:33:54.686Z,1.80
2023-02-02T21:36:39.852Z,1.80
2023-02-02T21:39:25.141Z,1.58
2023-02-02T21:42:12.702Z,2.03
2023-02-02T21:44:54.299Z,2.00
2023-02-02T21:47:29.029Z,1.70
2023-02-02T21:49:56.996Z,1.92
2023-02-02T21:52:24.375Z,1.60
2023-02-02T21:54:51.647Z,1.70
2023-02-02T21:57:19.072Z,1.63
2023-02-02T21:59:49.092Z,1.67
2023-02-02T22:02:22.443Z,1.80
2023-02-02T22:04:49.741Z,2.05
2023-02-02T22:07:17.155Z,1.70
2023-02-02T22:09:45.151Z,1.27
2023-02-02T22:12:20.487Z,2.00
2023-02-02T22:14:48.149Z,2.03
2023-02-02T22:17:22.294Z,2.30
2023-02-02T22:19:50.973Z,1.50
2023-02-02T22:22:22.409Z,1.60
2023-02-02T22:24:59.453Z,1.67
2023-02-02T22:27:33.163Z,1.75
2023-02-02T22:30:03.927Z,1.40
2023-02-02T22:32:31.237Z,1.92
2023-02-02T22:34:58.626Z,1.33
2023-02-02T22:37:25.878Z,1.92
2023-02-02T22:39:53.644Z,1.80
2023-02-02T22:42:21.032Z,1.58
2023-02-02T22:44:48.511Z,1.40
2023-02-02T22:47:47.264Z,1.83
2023-02-02T22:50:15.206Z,1.60
2023-02-02T22:52:45.431Z,1.40
2023-02-02T22:55:13.111Z,1.65
2023-02-02T22:57:40.505Z,1.40
2023-02-02T23:00:13.008Z,1.23
2023-02-02T23:02:42.016Z,2.22
2023-02-02T23:05:10.112Z,1.60
2023-02-02T23:07:37.931Z,1.27
2023-02-02T23:10:05.810Z,1.73
2023-02-02T23:12:33.298Z,1.30
2023-02-02T23:15:00.583Z,1.30
2023-02-02T23:17:27.884Z,1.70
2023-02-02T23:19:55.235Z,1.55
2023-02-02T23:22:22.582Z,2.00
2023-02-02T23:24:50.086Z,1.70
2023-02-02T23:27:17.430Z,1.67
2023-02-02T23:29:44.697Z,2.58
2023-02-02T23:32:12.019Z,2.80
2023-02-02T23:34:39.308Z,2.60
2023-02-02T23:37:06.694Z,3.72
2023-02-02T23:39:33.994Z,3.40
2023-02-02T23:42:01.433Z,3.70
2023-02-02T23:44:28.749Z,3.50
2023-02-02T23:46:56.106Z,3.63
2023-02-02T23:49:23.598Z,2.97
2023-02-02T23:51:50.811Z,3.08
2023-02-02T23:54:18.073Z,4.15
2023-02-02T23:56:45.428Z,3.35
2023-02-02T23:59:13.457Z,4.15
